createdAt,value
2018-09-22T00:00:22.555Z,98962.51
2018-09-22T00:02:53.082Z,98968.26
2018-09-22T00:05:23.579Z,98979.40
2018-09-22T00:07:53.857Z,98990.13
2018-09-22T00:10:24.493Z,98995.33
2018-09-22T00:12:54.827Z,98996.92
2018-09-22T00:15:25.361Z,99004.14
2018-09-22T00:17:58.573Z,99008.83
2018-09-22T00:20:29.122Z,99033.37
2018-09-22T00:22:59.625Z,99024.80
2018-09-22T00:25:29.848Z,99032.37
2018-09-22T00:28:00.400Z,99035.23
2018-09-22T00:30:31.242Z,99047.44
2018-09-22T00:33:01.769Z,99055.98
2018-09-22T00:35:32.072Z,99063.63
2018-09-22T00:38:02.366Z,99076.17
2018-09-22T00:40:32.948Z,99092.26
2018-09-22T00:43:03.504Z,99104.81
2018-09-22T00:45:33.991Z,99121.10
2018-09-22T00:48:04.268Z,99127.38
2018-09-22T00:50:34.775Z,99135.21
2018-09-22T00:53:05.324Z,99157.24
2018-09-22T00:55:35.851Z,99169.51
2018-09-22T00:58:06.511Z,99176.09
2018-09-22T01:00:37.083Z,99214.05
2018-09-22T01:03:07.551Z,99224.11
2018-09-22T01:05:38.109Z,99240.87
2018-09-22T01:08:08.625Z,99236.18
2018-09-22T01:10:39.491Z,99278.89
2018-09-22T01:13:10.688Z,99285.94
2018-09-22T01:15:41.247Z,99298.10
2018-09-22T01:18:11.915Z,99299.23
2018-09-22T01:20:42.528Z,99308.83
2018-09-22T01:23:12.788Z,99307.45
2018-09-22T01:25:45.024Z,99329.45
2018-09-22T01:28:15.858Z,99329.31
2018-09-22T01:30:46.679Z,99322.25
2018-09-22T01:33:17.172Z,99347.16
2018-09-22T01:35:47.731Z,99339.72
2018-09-22T01:38:17.932Z,99321.52
2018-09-22T01:40:48.443Z,99337.93
2018-09-22T01:43:19.870Z,99318.24
2018-09-22T01:45:50.472Z,99337.93
2018-09-22T01:48:20.851Z,99347.95
2018-09-22T01:50:51.847Z,99353.84
2018-09-22T01:53:22.159Z,99357.09
2018-09-22T01:55:52.677Z,99364.80
2018-09-22T01:58:23.269Z,99367.22
2018-09-22T02:00:53.752Z,99322.13
2018-09-22T02:03:24.608Z,99381.06
2018-09-22T02:05:55.166Z,99377.39
2018-09-22T02:08:25.722Z,99366.70
2018-09-22T02:10:56.281Z,99396.78
2018-09-22T02:13:26.888Z,99393.31
2018-09-22T02:15:57.692Z,99406.47
2018-09-22T02:18:28.925Z,99412.70
2018-09-22T02:21:01.585Z,99430.85
2018-09-22T02:23:32.084Z,99421.41
2018-09-22T02:26:02.618Z,99447.56
2018-09-22T02:28:33.176Z,99446.63
2018-09-22T02:31:03.681Z,99456.70
2018-09-22T02:33:34.201Z,99477.63
2018-09-22T02:36:05.019Z,99481.13
2018-09-22T02:38:35.715Z,99495.05
2018-09-22T02:41:06.545Z,99489.95
2018-09-22T02:43:37.069Z,99489.42
2018-09-22T02:46:07.619Z,99482.95
2018-09-22T02:48:37.849Z,99483.22
2018-09-22T02:51:08.359Z,99473.23
2018-09-22T02:53:39.461Z,99462.73
2018-09-22T02:56:09.952Z,99473.81
2018-09-22T02:58:40.191Z,99457.92
2018-09-22T03:01:10.792Z,99479.70
2018-09-22T03:03:42.852Z,99500.32
2018-09-22T03:06:13.443Z,99492.65
2018-09-22T03:08:44.010Z,99501.80
2018-09-22T03:11:14.928Z,99522.41
2018-09-22T03:13:45.505Z,99533.69
2018-09-22T03:16:16.268Z,99529.03
2018-09-22T03:18:46.622Z,99519.31
2018-09-22T03:21:17.188Z,99519.61
2018-09-22T03:23:47.676Z,99522.41
2018-09-22T03:26:18.172Z,99517.80
2018-09-22T03:28:49.036Z,99524.76
2018-09-22T03:31:19.979Z,99511.78
2018-09-22T03:33:50.690Z,99513.97
2018-09-22T03:36:21.229Z,99519.94
2018-09-22T03:38:51.764Z,99525.80
2018-09-22T03:41:22.040Z,99516.34
2018-09-22T03:43:52.529Z,99518.69
2018-09-22T03:46:23.104Z,99535.77
2018-09-22T03:48:53.641Z,99547.50
2018-09-22T03:51:24.220Z,99522.03
2018-09-22T03:53:55.509Z,99526.38
2018-09-22T03:56:26.128Z,99524.76
2018-09-22T03:58:56.693Z,99538.38
2018-09-22T04:01:27.223Z,99538.59
2018-09-22T04:03:57.464Z,99548.47
2018-09-22T04:06:27.693Z,99568.78
2018-09-22T04:08:57.962Z,99572.64
2018-09-22T04:11:28.443Z,99590.84
2018-09-22T04:13:59.234Z,99591.16
2018-09-22T04:16:29.780Z,99601.28
2018-09-22T04:19:00.932Z,99595.13
2018-09-22T04:21:32.089Z,99612.73
2018-09-22T04:24:13.139Z,99603.75
2018-09-22T04:26:44.002Z,99593.73
2018-09-22T04:29:14.497Z,99594.81
2018-09-22T04:31:45.056Z,99582.47
2018-09-22T04:34:15.941Z,99586.80
2018-09-22T04:36:46.221Z,99598.19
2018-09-22T04:39:16.864Z,99582.84
2018-09-22T04:41:48.257Z,99589.94
2018-09-22T04:44:18.485Z,99595.75
2018-09-22T04:46:48.999Z,99597.46
2018-09-22T04:49:19.673Z,99595.05
2018-09-22T04:51:50.151Z,99599.58
2018-09-22T04:54:20.384Z,99610.78
2018-09-22T04:56:50.885Z,99624.45
2018-09-22T04:59:21.667Z,99635.84
2018-09-22T05:01:52.800Z,99644.89
2018-09-22T05:04:23.513Z,99652.58
2018-09-22T05:06:54.172Z,99647.79
2018-09-22T05:09:24.680Z,99542.08
2018-09-22T05:11:55.381Z,99640.24
2018-09-22T05:14:26.208Z,99644.67
2018-09-22T05:16:56.756Z,99649.64
2018-09-22T05:19:28.042Z,99634.70
2018-09-22T05:21:58.536Z,99640.25
2018-09-22T05:24:29.016Z,99639.26
2018-09-22T05:26:59.753Z,99620.73
2018-09-22T05:29:30.803Z,99624.39
2018-09-22T05:32:01.507Z,99625.02
2018-09-22T05:34:31.760Z,99626.52
2018-09-22T05:37:02.417Z,99630.86
2018-09-22T05:39:32.943Z,99617.95
2018-09-22T05:42:03.496Z,99620.65
2018-09-22T05:44:34.836Z,99625.89
2018-09-22T05:47:05.961Z,99624.05
2018-09-22T05:49:37.524Z,99626.69
2018-09-22T05:52:07.972Z,99634.37
2018-09-22T05:54:38.696Z,99657.86
2018-09-22T05:57:08.911Z,99665.41
2018-09-22T05:59:39.623Z,99658.77
2018-09-22T06:02:10.157Z,99668.69
2018-09-22T06:04:40.410Z,99657.31
2018-09-22T06:07:10.891Z,99656.23
2018-09-22T06:09:41.162Z,99664.83
2018-09-22T06:12:11.832Z,99641.64
2018-09-22T06:14:42.131Z,99632.02
2018-09-22T06:17:13.036Z,99660.48
2018-09-22T06:19:43.596Z,99663.06
2018-09-22T06:22:15.363Z,99676.22
2018-09-22T06:24:45.856Z,99686.41
2018-09-22T06:27:17.290Z,99687.56
2018-09-22T06:29:47.840Z,99687.64
2018-09-22T06:32:18.344Z,99688.64
2018-09-22T06:34:48.875Z,99707.66
2018-09-22T06:37:19.633Z,99710.55
2018-09-22T06:39:50.156Z,99709.93
2018-09-22T06:42:21.511Z,99707.28
2018-09-22T06:44:52.012Z,99714.72
2018-09-22T06:47:22.528Z,99699.52
2018-09-22T06:49:53.550Z,99728.46
2018-09-22T06:52:24.432Z,99721.39
2018-09-22T06:54:54.962Z,99720.77
2018-09-22T06:57:26.726Z,99727.32
2018-09-22T06:59:57.211Z,99726.31
2018-09-22T07:02:27.440Z,99716.50
2018-09-22T07:04:57.662Z,99728.90
2018-09-22T07:07:28.163Z,99721.73
2018-09-22T07:09:58.668Z,99726.85
2018-09-22T07:12:29.521Z,99732.04
2018-09-22T07:14:59.743Z,99733.95
2018-09-22T07:17:29.960Z,99726.74
2018-09-22T07:20:00.504Z,99707.91
2018-09-22T07:22:36.185Z,99700.90
2018-09-22T07:25:08.766Z,99716.47
2018-09-22T07:27:39.251Z,99713.44
2018-09-22T07:30:09.851Z,99704.30
2018-09-22T07:32:40.738Z,99704.78
2018-09-22T07:35:11.416Z,99701.80
2018-09-22T07:37:41.949Z,99704.15
2018-09-22T07:40:12.493Z,99718.94
2018-09-22T07:42:42.974Z,99721.98
2018-09-22T07:45:13.473Z,99733.34
2018-09-22T07:47:43.936Z,99726.80
2018-09-22T07:50:14.177Z,99744.25
2018-09-22T07:52:44.701Z,99747.28
2018-09-22T07:55:15.270Z,99733.44
2018-09-22T07:57:45.831Z,99744.29
2018-09-22T08:00:16.427Z,99747.45
2018-09-22T08:02:46.786Z,99770.83
2018-09-22T08:05:17.251Z,99757.60
2018-09-22T08:07:48.781Z,99758.11
2018-09-22T08:10:20.337Z,99753.83
2018-09-22T08:12:53.552Z,99750.50
2018-09-22T08:15:25.942Z,99759.94
2018-09-22T08:17:56.155Z,99767.09
2018-09-22T08:20:26.708Z,99770.73
2018-09-22T08:22:57.311Z,99774.79
2018-09-22T08:25:27.881Z,99771.98
2018-09-22T08:28:00.119Z,99767.32
2018-09-22T08:30:30.764Z,99773.92
2018-09-22T08:33:01.016Z,99778.09
2018-09-22T08:35:31.819Z,99768.58
2018-09-22T08:38:02.052Z,99771.04
2018-09-22T08:40:32.760Z,99766.34
2018-09-22T08:43:03.264Z,99771.72
2018-09-22T08:45:33.655Z,99775.17
2018-09-22T08:48:04.175Z,99778.08
2018-09-22T08:50:35.579Z,99779.37
2018-09-22T08:53:06.389Z,99789.08
2018-09-22T08:55:36.904Z,99787.94
2018-09-22T08:58:07.452Z,99775.81
2018-09-22T09:00:38.008Z,99784.14
2018-09-22T09:03:08.316Z,99776.12
2018-09-22T09:05:38.752Z,99790.84
2018-09-22T09:08:09.265Z,99792.52
2018-09-22T09:10:39.887Z,99794.87
2018-09-22T09:13:12.748Z,99792.95
2018-09-22T09:15:43.384Z,99800.08
2018-09-22T09:18:14.510Z,99799.07
2018-09-22T09:20:44.836Z,99804.63
2018-09-22T09:23:15.384Z,99785.25
2018-09-22T09:25:45.819Z,99788.80
2018-09-22T09:28:16.327Z,99790.03
2018-09-22T09:30:46.888Z,99793.38
2018-09-22T09:33:17.386Z,99790.31
2018-09-22T09:35:47.603Z,99781.31
2018-09-22T09:38:18.499Z,99791.19
2018-09-22T09:40:49.278Z,99791.03
2018-09-22T09:43:20.555Z,99793.26
2018-09-22T09:45:50.923Z,99784.09
2018-09-22T09:48:21.412Z,99785.12
2018-09-22T09:50:52.045Z,99784.75
2018-09-22T09:53:22.358Z,99794.96
2018-09-22T09:55:52.545Z,99774.56
2018-09-22T09:58:23.033Z,99775.31
2018-09-22T10:00:53.584Z,99768.09
2018-09-22T10:03:24.123Z,99771.55
2018-09-22T10:05:55.279Z,99771.25
2018-09-22T10:08:25.480Z,99770.55
2018-09-22T10:10:55.816Z,99776.44
2018-09-22T10:13:26.322Z,99772.91
2018-09-22T10:15:56.905Z,99756.27
2018-09-22T10:18:27.294Z,99764.30
2018-09-22T10:20:58.087Z,99753.58
2018-09-22T10:23:28.576Z,99510.88
2018-09-22T10:25:59.067Z,99752.80
2018-09-22T10:28:29.375Z,99753.29
2018-09-22T10:30:59.853Z,99755.94
2018-09-22T10:33:30.346Z,99747.77
2018-09-22T10:36:00.872Z,99754.61
2018-09-22T10:38:31.370Z,99762.02
2018-09-22T10:41:01.577Z,99765.27
2018-09-22T10:43:32.068Z,99757.86
2018-09-22T10:46:02.668Z,99757.64
2018-09-22T10:48:33.281Z,99757.28
2018-09-22T10:51:03.792Z,99768.39
2018-09-22T10:53:34.295Z,99763.95
2018-09-22T10:56:04.490Z,99755.91
2018-09-22T10:58:35.099Z,99755.37
2018-09-22T11:01:05.924Z,99759.78
2018-09-22T11:03:36.764Z,99755.00
2018-09-22T11:06:07.704Z,99773.83
2018-09-22T11:08:38.332Z,99755.38
2018-09-22T11:11:10.833Z,99739.73
2018-09-22T11:13:41.323Z,99739.05
2018-09-22T11:16:11.831Z,99737.66
2018-09-22T11:18:42.313Z,99730.03
2018-09-22T11:21:12.947Z,99731.42
2018-09-22T11:23:43.466Z,99721.66
2018-09-22T11:26:13.985Z,99727.98
2018-09-22T11:28:44.578Z,99723.44
2018-09-22T11:31:15.148Z,99719.70
2018-09-22T11:33:45.712Z,99726.19
2018-09-22T11:36:16.211Z,99714.80
2018-09-22T11:38:47.027Z,99716.31
2018-09-22T11:41:17.490Z,99718.92
2018-09-22T11:43:47.972Z,99721.89
2018-09-22T11:46:18.623Z,99731.11
2018-09-22T11:48:49.309Z,99724.00
2018-09-22T11:51:19.512Z,99729.23
2018-09-22T11:53:49.991Z,99724.56
2018-09-22T11:56:20.509Z,99722.66
2018-09-22T11:58:50.911Z,99719.70
2018-09-22T12:01:21.401Z,99728.33
2018-09-22T12:03:51.883Z,99728.64
2018-09-22T12:06:22.181Z,99713.16
2018-09-22T12:08:52.709Z,99715.77
2018-09-22T12:11:23.318Z,99717.16
2018-09-22T12:14:00.136Z,99687.66
2018-09-22T12:16:30.740Z,99704.84
2018-09-22T12:19:01.435Z,99703.70
2018-09-22T12:21:31.816Z,99709.69
2018-09-22T12:24:02.037Z,99711.45
2018-09-22T12:26:32.236Z,99717.73
2018-09-22T12:29:02.504Z,99716.89
2018-09-22T12:31:32.762Z,99708.88
2018-09-22T12:34:03.843Z,99713.36
2018-09-22T12:36:34.393Z,99706.12
2018-09-22T12:39:08.020Z,99707.18
2018-09-22T12:41:39.075Z,99706.74
2018-09-22T12:44:09.646Z,99702.46
2018-09-22T12:46:40.178Z,99704.56
2018-09-22T12:49:12.718Z,99697.00
2018-09-22T12:51:43.189Z,99706.29
2018-09-22T12:54:14.404Z,99701.15
2018-09-22T12:56:44.894Z,99706.99
2018-09-22T12:59:15.133Z,99693.95
2018-09-22T13:01:45.609Z,99672.49
2018-09-22T13:04:16.101Z,99672.08
2018-09-22T13:06:46.593Z,99687.20
2018-09-22T13:09:16.820Z,99678.98
2018-09-22T13:11:47.315Z,99681.47
2018-09-22T13:14:17.884Z,99691.48
2018-09-22T13:16:48.444Z,99689.40
2018-09-22T13:19:19.740Z,99694.27
2018-09-22T13:21:50.358Z,99692.28
2018-09-22T13:24:20.919Z,99693.84
2018-09-22T13:26:52.249Z,99695.88
2018-09-22T13:29:22.901Z,99691.48
2018-09-22T13:31:53.575Z,99692.17
2018-09-22T13:34:24.027Z,99692.72
2018-09-22T13:36:54.584Z,99673.13
2018-09-22T13:39:25.056Z,99673.20
2018-09-22T13:41:55.564Z,99673.52
2018-09-22T13:44:26.059Z,99673.77
2018-09-22T13:46:56.559Z,99675.16
2018-09-22T13:49:27.060Z,99669.92
2018-09-22T13:51:57.563Z,99669.19
2018-09-22T13:54:28.312Z,99652.05
2018-09-22T13:56:58.520Z,99647.73
2018-09-22T13:59:29.025Z,99639.99
2018-09-22T14:01:59.220Z,99627.95
2018-09-22T14:04:29.429Z,99640.25
2018-09-22T14:06:59.644Z,99633.45
2018-09-22T14:09:29.944Z,99623.59
2018-09-22T14:12:00.212Z,99630.47
2018-09-22T14:14:30.396Z,99626.72
2018-09-22T14:17:00.932Z,99619.80
2018-09-22T14:19:31.186Z,99628.52
2018-09-22T14:22:02.464Z,99592.89
2018-09-22T14:24:33.028Z,99636.57
2018-09-22T14:27:03.645Z,99634.50
2018-09-22T14:29:34.301Z,99638.34
2018-09-22T14:32:05.218Z,99643.05
2018-09-22T14:34:35.645Z,99635.61
2018-09-22T14:37:06.223Z,99639.44
2018-09-22T14:39:36.753Z,99635.08
2018-09-22T14:42:07.237Z,99640.55
2018-09-22T14:44:37.767Z,99640.66
2018-09-22T14:47:08.272Z,99640.20
2018-09-22T14:49:38.784Z,99637.11
2018-09-22T14:52:09.375Z,99641.36
2018-09-22T14:54:39.604Z,99645.38
2018-09-22T14:57:10.099Z,99642.42
2018-09-22T14:59:40.655Z,99644.02
2018-09-22T15:02:10.876Z,99649.21
2018-09-22T15:04:41.113Z,99646.72
2018-09-22T15:07:11.594Z,99643.61
2018-09-22T15:09:42.128Z,99650.30
2018-09-22T15:12:12.357Z,99644.91
2018-09-22T15:14:43.108Z,99643.33
2018-09-22T15:17:13.803Z,99638.38
2018-09-22T15:19:45.180Z,99640.75
2018-09-22T15:22:15.878Z,99634.17
2018-09-22T15:24:46.462Z,99637.09
2018-09-22T15:27:17.155Z,99634.09
2018-09-22T15:29:47.952Z,99637.02
2018-09-22T15:32:18.225Z,99638.19
2018-09-22T15:34:48.723Z,99629.69
2018-09-22T15:37:19.188Z,99621.64
2018-09-22T15:39:49.562Z,99638.77
2018-09-22T15:42:19.763Z,99627.97
2018-09-22T15:44:50.473Z,99636.84
2018-09-22T15:47:20.942Z,99624.38
2018-09-22T15:49:51.643Z,99619.36
2018-09-22T15:52:22.217Z,99617.59
2018-09-22T15:54:52.573Z,99608.23
2018-09-22T15:57:23.169Z,99606.19
2018-09-22T15:59:53.487Z,99594.61
2018-09-22T16:02:23.818Z,99595.32
2018-09-22T16:04:54.204Z,99596.77
2018-09-22T16:07:24.944Z,99583.27
2018-09-22T16:09:55.406Z,99582.80
2018-09-22T16:12:25.929Z,99588.72
2018-09-22T16:14:56.162Z,99450.56
2018-09-22T16:17:26.386Z,99589.44
2018-09-22T16:19:56.696Z,99592.29
2018-09-22T16:22:27.810Z,99601.59
2018-09-22T16:24:58.922Z,99597.92
2018-09-22T16:27:29.100Z,99599.31
2018-09-22T16:30:01.013Z,99606.81
2018-09-22T16:32:31.863Z,99605.02
2018-09-22T16:35:02.450Z,99602.55
2018-09-22T16:37:32.902Z,99614.17
2018-09-22T16:40:08.798Z,99621.87
2018-09-22T16:42:39.318Z,99621.16
2018-09-22T16:45:10.051Z,99623.35
2018-09-22T16:47:41.174Z,99627.38
2018-09-22T16:50:12.263Z,99633.65
2018-09-22T16:52:43.451Z,99635.88
2018-09-22T16:55:13.980Z,99630.52
2018-09-22T16:57:44.493Z,99624.12
2018-09-22T17:00:14.996Z,99616.75
2018-09-22T17:02:45.600Z,99603.22
2018-09-22T17:05:16.464Z,99594.84
2018-09-22T17:07:46.673Z,99585.94
2018-09-22T17:10:16.851Z,99584.84
2018-09-22T17:12:47.374Z,99578.97
2018-09-22T17:15:17.873Z,99587.03
2018-09-22T17:17:48.903Z,99583.13
2018-09-22T17:20:19.403Z,99575.43
2018-09-22T17:22:49.856Z,99567.95
2018-09-22T17:25:20.107Z,99562.86
2018-09-22T17:27:53.315Z,99570.33
2018-09-22T17:30:23.904Z,99560.33
2018-09-22T17:32:54.352Z,99564.73
2018-09-22T17:35:25.024Z,99571.78
2018-09-22T17:37:55.275Z,99539.61
2018-09-22T17:40:26.312Z,99571.20
2018-09-22T17:43:07.700Z,99576.42
2018-09-22T17:45:39.856Z,99573.05
2018-09-22T17:48:10.479Z,99569.83
2018-09-22T17:50:40.762Z,99569.00
2018-09-22T17:53:13.266Z,99565.48
2018-09-22T17:55:44.025Z,99569.84
2018-09-22T17:58:14.523Z,99563.69
2018-09-22T18:00:44.744Z,99590.61
2018-09-22T18:03:15.268Z,99602.09
2018-09-22T18:05:45.520Z,99588.45
2018-09-22T18:08:16.021Z,99587.03
2018-09-22T18:10:46.527Z,99589.56
2018-09-22T18:13:17.344Z,99586.38
2018-09-22T18:15:47.853Z,99593.77
2018-09-22T18:18:18.200Z,99596.59
2018-09-22T18:20:48.688Z,99610.55
2018-09-22T18:23:19.218Z,99607.23
2018-09-22T18:25:49.431Z,99612.55
2018-09-22T18:28:19.673Z,99618.44
2018-09-22T18:30:50.201Z,99623.95
2018-09-22T18:33:20.419Z,99617.01
2018-09-22T18:35:50.929Z,99624.73
2018-09-22T18:38:21.155Z,99621.85
2018-09-22T18:40:51.753Z,99599.74
2018-09-22T18:43:22.406Z,99608.69
2018-09-22T18:45:53.252Z,99613.94
2018-09-22T18:48:24.500Z,99599.74
2018-09-22T18:50:55.125Z,99593.14
2018-09-22T18:53:25.608Z,99599.25
2018-09-22T18:55:56.186Z,99591.41
2018-09-22T18:58:26.924Z,99582.41
2018-09-22T19:00:57.588Z,99575.34
2018-09-22T19:03:27.774Z,99578.14
2018-09-22T19:05:58.439Z,99598.84
2018-09-22T19:08:29.481Z,99603.58
2018-09-22T19:10:59.814Z,99600.73
2018-09-22T19:13:33.664Z,99604.37
2018-09-22T19:16:08.880Z,99612.82
2018-09-22T19:18:46.159Z,99607.91
2018-09-22T19:21:22.523Z,99597.77
2018-09-22T19:23:57.661Z,99583.44
2018-09-22T19:26:36.412Z,99568.14
2018-09-22T19:29:15.052Z,99581.48
2018-09-22T19:32:22.913Z,99582.06
2018-09-22T19:34:59.859Z,99592.19
2018-09-22T19:37:40.717Z,99595.81
2018-09-22T19:40:19.664Z,99586.22
2018-09-22T19:43:06.396Z,99590.16
2018-09-22T19:45:43.453Z,99589.69
2018-09-22T19:48:34.508Z,99582.86
2018-09-22T19:51:09.095Z,99595.41
2018-09-22T19:53:41.260Z,99601.88
2018-09-22T19:56:11.491Z,99608.66
2018-09-22T19:58:42.068Z,99613.05
2018-09-22T20:01:12.737Z,99607.44
2018-09-22T20:03:42.964Z,99603.98
2018-09-22T20:06:13.178Z,99611.27
2018-09-22T20:08:43.669Z,99623.30
2018-09-22T20:11:14.160Z,99623.55
2018-09-22T20:13:44.916Z,99624.88
2018-09-22T20:16:15.403Z,99621.70
2018-09-22T20:18:45.611Z,99622.29
2018-09-22T20:21:16.123Z,99624.32
2018-09-22T20:23:46.454Z,99625.88
2018-09-22T20:26:17.232Z,99604.17
2018-09-22T20:28:47.832Z,99638.08
2018-09-22T20:31:18.294Z,99646.34
2018-09-22T20:33:48.771Z,99655.62
2018-09-22T20:36:19.436Z,99653.35
2018-09-22T20:38:50.089Z,99653.83
2018-09-22T20:41:20.840Z,99646.52
2018-09-22T20:43:51.147Z,99640.77
2018-09-22T20:46:21.874Z,99642.72
2018-09-22T20:48:52.388Z,99638.88
2018-09-22T20:51:22.656Z,99636.98
2018-09-22T20:53:53.135Z,99636.25
2018-09-22T20:56:23.347Z,99634.10
2018-09-22T20:58:53.684Z,99634.91
2018-09-22T21:01:24.412Z,99627.12
2018-09-22T21:03:55.023Z,99631.97
2018-09-22T21:06:25.905Z,99631.02
2018-09-22T21:08:56.167Z,99632.55
2018-09-22T21:11:26.814Z,99636.30
2018-09-22T21:13:57.015Z,99634.12
2018-09-22T21:16:27.499Z,99630.59
2018-09-22T21:18:57.721Z,99628.68
2018-09-22T21:21:28.056Z,99629.34
2018-09-22T21:23:58.659Z,99632.70
2018-09-22T21:26:29.693Z,99625.23
2018-09-22T21:29:00.515Z,99621.74
2018-09-22T21:31:31.402Z,99624.69
2018-09-22T21:34:01.833Z,99618.66
2018-09-22T21:36:33.000Z,99631.72
2018-09-22T21:39:04.830Z,99629.39
2018-09-22T21:41:35.311Z,99625.86
2018-09-22T21:44:05.848Z,99622.29
2018-09-22T21:46:36.356Z,99620.25
2018-09-22T21:49:07.303Z,99615.45
2018-09-22T21:51:38.046Z,99617.13
2018-09-22T21:54:08.704Z,99601.12
2018-09-22T21:56:39.445Z,99603.44
2018-09-22T21:59:10.219Z,99607.05
2018-09-22T22:01:41.647Z,99611.36
2018-09-22T22:04:12.289Z,99604.03
2018-09-22T22:06:42.547Z,99610.27
2018-09-22T22:09:14.120Z,99610.13
2018-09-22T22:11:44.441Z,99609.77
2018-09-22T22:14:14.908Z,99614.77
2018-09-22T22:16:45.188Z,99609.42
2018-09-22T22:19:15.708Z,99611.89
2018-09-22T22:21:46.604Z,99614.27
2018-09-22T22:24:17.119Z,99615.25
2018-09-22T22:26:48.792Z,99630.62
2018-09-22T22:29:19.057Z,99626.45
2018-09-22T22:31:49.272Z,99616.78
2018-09-22T22:34:21.508Z,99612.64
2018-09-22T22:36:52.020Z,99617.34
2018-09-22T22:39:22.539Z,99607.67
2018-09-22T22:41:53.076Z,99615.55
2018-09-22T22:44:23.632Z,99610.20
2018-09-22T22:46:54.291Z,99610.08
2018-09-22T22:49:25.148Z,99615.08
2018-09-22T22:51:55.675Z,99619.17
2018-09-22T22:54:25.940Z,99613.26
2018-09-22T22:56:56.412Z,99604.78
2018-09-22T22:59:26.949Z,99587.51
2018-09-22T23:01:57.436Z,99570.88
2018-09-22T23:04:28.033Z,99579.42
2018-09-22T23:06:58.512Z,99583.06
2018-09-22T23:09:29.693Z,99584.59
2018-09-22T23:12:01.733Z,99586.26
2018-09-22T23:14:31.936Z,99592.60
2018-09-22T23:17:02.515Z,99581.98
2018-09-22T23:19:32.780Z,99589.94
2018-09-22T23:22:03.521Z,99597.26
2018-09-22T23:24:34.055Z,99606.59
2018-09-22T23:27:04.620Z,99610.11
2018-09-22T23:29:35.156Z,99609.02
2018-09-22T23:32:06.913Z,99624.89
2018-09-22T23:34:37.411Z,99622.50
2018-09-22T23:37:07.907Z,99628.36
2018-09-22T23:39:38.420Z,99627.00
2018-09-22T23:42:08.901Z,99629.20
2018-09-22T23:44:39.420Z,99634.87
2018-09-22T23:47:10.252Z,99639.41
2018-09-22T23:49:40.460Z,99652.10
2018-09-22T23:52:11.335Z,99648.03
2018-09-22T23:54:41.827Z,99634.68
2018-09-22T23:57:12.355Z,99630.39
2018-09-22T23:59:42.888Z,99627.75
